Time;durP1;ratioP1;P1;durP2;ratioP2;P2;SDS_P1;SDS_P2;PMS_P1;PMS_P2;Temp;Humidity;BMP_temperature;BMP_pressure;BME280_temperature;BME280_humidity;BME280_pressure;Samples;Min_cycle;Max_cycle;Signal;HPM_P1;HPM_P2
2022/05/09 04:24:31;;;;;;;12.50;8.10;;;15.30;99.90;;;;;;5053216;28;20442;-72
2022/05/09 04:26:58;;;;;;;10.38;7.85;;;15.10;99.90;;;;;;5050956;28;20052;-73
2022/05/09 04:29:25;;;;;;;10.95;7.95;;;15.10;99.90;;;;;;5053881;28;20035;-73
2022/05/09 04:31:53;;;;;;;11.77;7.30;;;15.10;99.90;;;;;;5049204;28;20366;-73
2022/05/09 04:34:19;;;;;;;10.48;8.00;;;15.10;99.90;;;;;;5054525;28;20031;-72
2022/05/09 04:36:46;;;;;;;9.85;7.60;;;15.20;99.90;;;;;;5049888;28;20032;-73
2022/05/09 04:39:15;;;;;;;10.52;7.45;;;15.20;99.90;;;;;;5053741;28;20114;-73
2022/05/09 04:41:40;;;;;;;10.07;7.50;;;15.30;99.90;;;;;;5049056;28;20025;-73
2022/05/09 04:44:06;;;;;;;9.90;7.77;;;15.30;99.90;;;;;;5054302;28;20090;-73
2022/05/09 04:46:33;;;;;;;9.10;7.20;;;15.30;99.90;;;;;;5052645;28;20260;-73
2022/05/09 04:49:00;;;;;;;10.48;7.28;;;15.30;99.90;;;;;;5049879;28;20044;-73
2022/05/09 04:51:26;;;;;;;8.65;6.85;;;15.40;99.90;;;;;;5052826;28;20060;-73
2022/05/09 04:53:51;;;;;;;10.57;7.93;;;15.40;99.90;;;;;;5065643;28;20056;-74
2022/05/09 04:56:19;;;;;;;8.97;7.33;;;15.40;99.90;;;;;;5053971;28;20083;-73
2022/05/09 04:58:45;;;;;;;9.52;7.30;;;15.50;99.90;;;;;;5048505;28;20143;-73
2022/05/09 05:01:13;;;;;;;9.57;6.63;;;15.50;99.90;;;;;;5052612;28;20096;-74
2022/05/09 05:03:39;;;;;;;8.48;7.18;;;15.60;99.90;;;;;;5049592;28;20032;-74
2022/05/09 05:06:06;;;;;;;9.65;7.55;;;15.60;99.90;;;;;;5053841;28;20084;-73
2022/05/09 05:08:36;;;;;;;9.75;7.13;;;15.70;99.90;;;;;;5051205;28;20078;-73
2022/05/09 05:11:03;;;;;;;9.60;7.07;;;15.70;99.90;;;;;;5051341;28;20053;-73
2022/05/09 05:13:30;;;;;;;9.20;6.85;;;15.80;99.90;;;;;;5051640;28;20036;-73
2022/05/09 05:15:56;;;;;;;8.23;6.50;;;15.80;99.90;;;;;;5053895;28;20029;-74
2022/05/09 05:18:23;;;;;;;;;;;15.80;99.90;;;;;;5056280;28;20187;-74
2022/05/09 05:20:54;;;;;;;10.18;6.97;;;15.90;99.90;;;;;;5050293;28;19926;-73
2022/05/09 05:23:20;;;;;;;8.30;6.32;;;16.00;99.90;;;;;;5052909;28;20041;-73
2022/05/09 05:25:46;;;;;;;10.30;7.05;;;16.00;99.90;;;;;;5049469;28;20086;-78
2022/05/09 05:28:15;;;;;;;9.35;6.65;;;16.10;99.90;;;;;;5055758;28;20032;-77
2022/05/09 05:30:41;;;;;;;10.23;6.45;;;16.20;99.90;;;;;;5047233;28;20055;-73
2022/05/09 05:33:08;;;;;;;8.45;6.30;;;16.20;99.90;;;;;;5053230;28;20028;-74
2022/05/09 05:35:35;;;;;;;9.57;6.95;;;16.30;99.90;;;;;;5038234;28;20075;-73
2022/05/09 05:38:00;;;;;;;7.80;6.25;;;16.40;99.90;;;;;;5036869;28;20056;-73
2022/05/09 05:40:30;;;;;;;10.75;6.88;;;16.50;99.90;;;;;;5038180;28;20052;-73
2022/05/09 05:42:58;;;;;;;9.20;6.85;;;16.60;99.90;;;;;;5033678;28;20060;-73
2022/05/09 05:45:24;;;;;;;9.75;6.75;;;16.70;99.90;;;;;;5039268;28;20025;-73
2022/05/09 05:47:51;;;;;;;8.68;6.05;;;16.80;99.90;;;;;;5034931;28;20045;-73
2022/05/09 05:50:24;;;;;;;8.15;5.90;;;16.90;99.90;;;;;;5038953;28;20029;-73
2022/05/09 05:52:53;;;;;;;9.43;7.07;;;17.00;99.90;;;;;;5033742;28;20060;-72
2022/05/09 05:55:19;;;;;;;8.88;6.15;;;17.10;99.90;;;;;;5040503;28;20053;-73
2022/05/09 05:57:47;;;;;;;7.53;6.68;;;17.20;99.90;;;;;;5034633;28;20033;-73
2022/05/09 06:00:22;;;;;;;9.10;6.95;;;17.40;99.90;;;;;;5038833;28;20047;-73
2022/05/09 06:02:49;;;;;;;9.00;6.22;;;17.60;99.90;;;;;;5034436;28;20363;-73
2022/05/09 06:05:19;;;;;;;9.82;6.47;;;17.70;99.90;;;;;;5038416;28;20100;-73
2022/05/09 06:07:46;;;;;;;7.65;5.80;;;17.80;99.90;;;;;;5033917;28;20013;-73
2022/05/09 06:10:15;;;;;;;7.63;6.18;;;17.90;99.90;;;;;;5038853;28;20545;-73
2022/05/09 06:12:43;;;;;;;8.82;6.22;;;17.90;99.90;;;;;;5035598;28;20032;-73
2022/05/09 06:15:24;;;;;;;7.10;5.57;;;17.90;99.90;;;;;;5038068;28;20044;-74
2022/05/09 06:17:54;;;;;;;9.23;6.45;;;18.00;99.90;;;;;;5035453;28;20389;-74
2022/05/09 06:20:21;;;;;;;8.63;6.65;;;18.10;99.90;;;;;;5038313;28;20029;-73
2022/05/09 06:22:49;;;;;;;8.45;6.60;;;18.10;99.90;;;;;;5038486;28;20029;-73
2022/05/09 06:25:17;;;;;;;7.00;6.15;;;18.10;99.90;;;;;;5033664;28;20769;-73
2022/05/09 06:27:42;;;;;;;9.18;6.10;;;18.20;99.90;;;;;;5037575;28;20025;-74
2022/05/09 06:30:11;;;;;;;8.60;6.10;;;18.30;99.90;;;;;;5033641;28;20071;-73
2022/05/09 06:32:41;;;;;;;11.23;7.03;;;18.40;99.90;;;;;;5037596;28;20025;-73
2022/05/09 06:35:11;;;;;;;7.90;6.95;;;18.60;99.90;;;;;;5034642;28;20017;-73
2022/05/09 06:37:41;;;;;;;8.60;6.43;;;18.70;99.90;;;;;;5038760;28;20343;-73
2022/05/09 06:40:10;;;;;;;7.30;6.45;;;18.70;99.90;;;;;;5033641;28;20828;-74
2022/05/09 06:42:36;;;;;;;8.60;6.28;;;18.80;99.90;;;;;;5035200;28;20025;-73
2022/05/09 06:45:03;;;;;;;7.72;6.40;;;19.00;99.90;;;;;;5035704;28;20044;-73
2022/05/09 06:47:29;;;;;;;10.38;6.93;;;19.10;99.90;;;;;;5037874;28;20036;-73
2022/05/09 06:50:01;;;;;;;7.93;6.07;;;19.30;99.70;;;;;;5034043;28;20083;-74
2022/05/09 06:52:28;;;;;;;9.13;6.43;;;19.40;99.30;;;;;;5037795;28;20036;-73
2022/05/09 06:54:53;;;;;;;7.50;6.10;;;19.60;99.20;;;;;;5034749;28;20537;-74
2022/05/09 06:57:19;;;;;;;7.57;5.95;;;19.70;99.00;;;;;;5034527;28;20028;-74
2022/05/09 06:59:48;;;;;;;7.20;5.85;;;19.90;98.80;;;;;;5036685;28;20551;-74
2022/05/09 07:02:14;;;;;;;7.35;5.80;;;20.10;97.90;;;;;;5033566;28;20485;-74
2022/05/09 07:04:42;;;;;;;7.85;6.07;;;20.30;97.50;;;;;;5038316;28;20474;-74
2022/05/09 07:07:08;;;;;;;8.75;6.10;;;20.40;97.50;;;;;;5033566;28;20025;-74
2022/05/09 07:09:34;;;;;;;6.57;5.68;;;20.60;96.80;;;;;;5036775;28;20021;-74
2022/05/09 07:12:00;;;;;;;6.07;5.47;;;20.60;96.40;;;;;;5033304;28;20265;-74
2022/05/09 07:14:26;;;;;;;6.60;5.63;;;20.80;96.40;;;;;;5038014;28;20068;-74
2022/05/09 07:16:52;;;;;;;8.35;6.55;;;20.90;96.10;;;;;;5038527;28;20063;-74
2022/05/09 07:19:18;;;;;;;9.05;5.90;;;21.10;95.70;;;;;;5033878;28;20690;-73
2022/05/09 07:21:45;;;;;;;7.03;5.50;;;21.00;95.60;;;;;;5035658;28;20075;-74
2022/05/09 07:24:11;;;;;;;5.97;5.32;;;21.10;95.60;;;;;;5025634;28;20053;-74
2022/05/09 07:26:37;;;;;;;7.13;5.43;;;21.30;95.20;;;;;;5032708;28;20033;-74
2022/05/09 07:29:04;;;;;;;;;;;21.80;94.50;;;;;;5014211;28;20111;-75
2022/05/09 07:31:31;;;;;;;6.70;5.50;;;22.10;93.70;;;;;;5017697;28;19920;-75
2022/05/09 07:34:01;;;;;;;6.55;5.20;;;22.50;92.90;;;;;;5013958;28;20094;-75
2022/05/09 07:36:28;;;;;;;8.20;5.80;;;22.70;92.10;;;;;;5017301;28;20025;-75
2022/05/09 07:38:59;;;;;;;6.80;5.32;;;23.00;91.60;;;;;;5014161;28;20494;-75
2022/05/09 07:41:25;;;;;;;6.97;5.22;;;23.40;91.00;;;;;;5016951;28;20045;-75
2022/05/09 07:43:52;;;;;;;11.88;5.40;;;23.80;89.90;;;;;;5012704;28;20118;-75
2022/05/09 07:46:18;;;;;;;7.93;5.40;;;24.20;88.20;;;;;;5017545;28;20842;-75
2022/05/09 07:48:44;;;;;;;6.47;5.20;;;24.70;87.20;;;;;;5009188;28;20088;-75
2022/05/09 07:51:09;;;;;;;5.22;4.60;;;25.80;83.90;;;;;;5014854;28;20051;-75
2022/05/09 07:53:35;;;;;;;6.22;5.28;;;26.90;80.40;;;;;;5012166;28;20685;-74
2022/05/09 07:56:04;;;;;;;7.90;5.57;;;27.90;75.00;;;;;;5016613;28;20463;-76
2022/05/09 07:58:32;;;;;;;7.00;5.18;;;29.40;69.90;;;;;;5012692;28;20013;-75
2022/05/09 08:01:02;;;;;;;5.38;4.43;;;30.30;65.00;;;;;;5016791;28;20108;-75
2022/05/09 08:03:31;;;;;;;7.40;4.93;;;30.70;62.90;;;;;;5013320;28;20071;-76
2022/05/09 08:06:00;;;;;;;6.15;5.35;;;31.70;61.40;;;;;;5016312;28;20098;-75
2022/05/09 08:08:31;;;;;;;6.28;5.05;;;32.50;56.60;;;;;;5012595;28;20030;-76
2022/05/09 08:10:58;;;;;;;5.93;4.72;;;32.10;55.80;;;;;;5030760;28;20483;-76
2022/05/09 08:13:25;;;;;;;5.93;5.30;;;31.50;55.70;;;;;;5029648;28;20217;-76
2022/05/09 08:15:55;;;;;;;5.75;4.93;;;30.80;56.40;;;;;;5015143;28;20104;-76
2022/05/09 08:18:25;;;;;;;5.47;4.97;;;30.50;56.80;;;;;;5019424;28;20026;-75
2022/05/09 08:20:55;;;;;;;5.68;5.18;;;30.80;56.10;;;;;;5014055;28;20021;-76
2022/05/09 08:23:22;;;;;;;5.78;5.13;;;31.50;55.50;;;;;;5015594;28;20049;-76
2022/05/09 08:25:50;;;;;;;6.40;5.18;;;31.80;54.10;;;;;;5011546;28;20037;-76
2022/05/09 08:28:18;;;;;;;7.20;4.50;;;32.20;53.50;;;;;;5016788;28;20555;-76
2022/05/09 08:30:47;;;;;;;4.80;4.30;;;32.60;53.10;;;;;;5012206;28;20778;-76
2022/05/09 08:33:18;;;;;;;7.80;4.75;;;33.40;52.40;;;;;;5015824;28;20121;-76
2022/05/09 08:35:46;;;;;;;5.82;4.20;;;33.70;51.40;;;;;;5012074;28;20060;-76
2022/05/09 08:38:13;;;;;;;4.47;4.07;;;34.00;51.00;;;;;;5016421;28;20014;-76
2022/05/09 08:40:53;;;;;;;5.18;4.68;;;34.10;49.80;;;;;;5011642;28;20088;-76
2022/05/09 08:43:50;;;;;;;4.55;4.15;;;34.60;49.10;;;;;;5015984;28;20033;-76
2022/05/09 08:46:45;;;;;;;5.88;4.63;;;34.90;48.60;;;;;;5015984;28;20037;-76
2022/05/09 08:49:47;;;;;;;4.88;4.45;;;35.40;47.40;;;;;;5014294;28;20030;-76
2022/05/09 08:52:24;;;;;;;6.30;4.47;;;35.60;46.50;;;;;;5030508;28;20024;-76
2022/05/09 08:54:52;;;;;;;4.70;4.30;;;35.10;46.50;;;;;;5012576;28;20021;-76
2022/05/09 08:57:26;;;;;;;6.10;4.28;;;35.00;46.60;;;;;;5016618;28;20144;-76
2022/05/09 09:00:06;;;;;;;8.85;3.92;;;34.90;46.10;;;;;;5011800;28;20241;-76
2022/05/09 09:02:43;;;;;;;5.65;3.85;;;34.70;46.00;;;;;;5011079;28;20417;-76
2022/05/09 09:05:12;;;;;;;5.80;4.45;;;35.30;45.40;;;;;;5030929;28;20113;-76
2022/05/09 09:07:54;;;;;;;6.15;3.72;;;35.50;44.80;;;;;;5011284;28;20101;-76
2022/05/09 09:10:29;;;;;;;5.65;4.20;;;35.20;44.80;;;;;;5017553;28;20041;-76
2022/05/09 09:13:23;;;;;;;5.90;4.03;;;35.10;45.70;;;;;;5014985;28;20024;-76
2022/05/09 09:16:16;;;;;;;5.05;4.40;;;35.30;44.80;;;;;;5013088;28;20030;-76
2022/05/09 09:18:54;;;;;;;7.15;4.20;;;35.20;43.70;;;;;;5012327;28;20125;-76
2022/05/09 09:21:57;;;;;;;4.18;3.78;;;35.10;43.90;;;;;;5016916;28;20658;-76
2022/05/09 09:24:41;;;;;;;4.13;3.67;;;34.90;44.00;;;;;;5017108;28;20038;-76
2022/05/09 09:27:23;;;;;;;4.25;3.85;;;35.20;44.50;;;;;;5020891;28;20109;-76
2022/05/09 09:30:01;;;;;;;3.92;3.53;;;35.00;44.70;;;;;;5013427;28;20033;-76
2022/05/09 09:32:27;;;;;;;4.68;3.97;;;34.80;44.40;;;;;;5018340;28;20754;-76
2022/05/09 09:35:03;;;;;;;3.92;3.60;;;34.90;44.10;;;;;;5013929;28;20101;-76
2022/05/09 09:38:00;;;;;;;4.90;3.95;;;35.10;44.10;;;;;;5020356;28;20013;-76
2022/05/09 09:40:33;;;;;;;4.45;3.95;;;35.20;44.10;;;;;;5019552;28;20030;-76
2022/05/09 09:42:59;;;;;;;6.32;4.30;;;34.60;43.90;;;;;;5019264;28;20033;-76
2022/05/09 09:45:49;;;;;;;4.55;3.80;;;34.20;44.80;;;;;;5020503;28;20022;-77
2022/05/09 09:48:23;;;;;;;6.68;4.53;;;34.10;44.70;;;;;;5019045;28;20036;-76
2022/05/09 09:51:04;;;;;;;4.35;3.85;;;34.40;43.90;;;;;;5014636;28;20022;-76
2022/05/09 09:53:36;;;;;;;5.93;4.18;;;34.40;44.50;;;;;;5019736;28;20018;-76
2022/05/09 09:56:06;;;;;;;4.60;4.20;;;34.30;44.70;;;;;;5019117;28;20021;-76
2022/05/09 09:58:38;;;;;;;4.80;4.00;;;33.80;45.20;;;;;;5016566;28;20021;-76
2022/05/09 10:01:25;;;;;;;5.85;4.55;;;33.60;44.90;;;;;;5017730;28;20026;-76
2022/05/09 10:04:28;;;;;;;3.90;3.55;;;33.00;45.10;;;;;;5015393;28;20017;-77
2022/05/09 10:07:01;;;;;;;4.65;3.55;;;33.30;45.70;;;;;;5030974;28;20927;-76
2022/05/09 10:09:38;;;;;;;5.43;4.28;;;33.90;45.30;;;;;;5019546;28;21372;-76
2022/05/09 10:12:15;;;;;;;4.35;3.92;;;33.50;44.40;;;;;;5014286;28;20068;-76
2022/05/09 10:14:40;;;;;;;4.55;3.70;;;33.10;45.20;;;;;;5026171;28;20034;-76
2022/05/09 10:17:31;;;;;;;4.32;3.65;;;32.70;45.70;;;;;;5014096;28;20028;-77
2022/05/09 10:19:59;;;;;;;6.95;4.32;;;33.00;46.40;;;;;;5012541;28;20534;-76
2022/05/09 10:25:28;;;;;;;4.63;4.15;;;32.60;46.50;;;;;;5013851;28;20076;-76
2022/05/09 10:28:13;;;;;;;4.85;3.78;;;31.70;46.70;;;;;;5013118;28;20026;-76
2022/05/09 10:30:57;;;;;;;8.07;4.15;;;31.80;47.40;;;;;;5012285;28;20020;-76
2022/05/09 10:33:49;;;;;;;5.57;4.60;;;31.90;47.20;;;;;;5018725;28;20087;-76
2022/05/09 10:36:26;;;;;;;5.88;4.15;;;32.00;47.10;;;;;;5018730;28;20033;-76
2022/05/09 10:39:03;;;;;;;5.93;3.95;;;31.30;47.20;;;;;;5014801;28;20014;-75
2022/05/09 10:41:37;;;;;;;6.05;4.43;;;30.60;48.30;;;;;;5024847;28;20017;-75
2022/05/09 10:44:29;;;;;;;6.70;4.57;;;29.70;48.70;;;;;;5019500;28;20493;-76
2022/05/09 10:47:01;;;;;;;8.35;5.50;;;28.80;49.50;;;;;;5014323;28;20037;-76
2022/05/09 10:49:49;;;;;;;10.05;4.90;;;28.50;50.40;;;;;;5017328;28;20030;-76
2022/05/09 10:52:43;;;;;;;4.93;4.18;;;29.10;50.40;;;;;;5016941;28;20124;-76
2022/05/09 10:55:25;;;;;;;6.55;5.05;;;29.20;49.80;;;;;;5016571;28;20038;-75
2022/05/09 10:58:13;;;;;;;5.13;4.40;;;29.40;49.50;;;;;;5014624;28;20037;-76
2022/05/09 11:00:52;;;;;;;5.25;4.20;;;29.00;50.10;;;;;;5012627;28;20032;-76
2022/05/09 11:03:37;;;;;;;6.95;4.47;;;28.80;50.60;;;;;;5017443;28;20132;-76
2022/05/09 11:06:39;;;;;;;5.85;4.55;;;28.30;51.00;;;;;;5034049;28;20402;-76
2022/05/09 11:09:57;;;;;;;4.43;4.00;;;27.90;51.40;;;;;;5017981;28;20083;-75
2022/05/09 11:15:37;;;;;;;6.15;4.93;;;27.20;52.10;;;;;;5018633;28;19909;-76
2022/05/09 11:18:29;;;;;;;7.97;4.50;;;26.90;53.50;;;;;;5031052;28;20014;-76
2022/05/09 11:21:16;;;;;;;6.18;4.55;;;26.70;53.80;;;;;;5013159;28;20018;-77
2022/05/09 11:24:18;;;;;;;4.50;3.90;;;26.60;53.50;;;;;;5012572;28;20060;-76
2022/05/09 11:27:11;;;;;;;4.72;4.00;;;26.70;53.60;;;;;;5010186;28;20716;-75
2022/05/09 11:29:52;;;;;;;5.63;4.65;;;26.30;52.20;;;;;;5011273;28;20021;-75
2022/05/09 11:32:38;;;;;;;7.25;4.80;;;26.30;53.40;;;;;;5015550;28;20111;-74
2022/05/09 11:35:40;;;;;;;4.97;4.20;;;26.50;53.80;;;;;;5016090;28;20029;-75
2022/05/09 11:38:35;;;;;;;6.40;4.47;;;26.80;53.80;;;;;;5035620;28;20029;-77
2022/05/09 11:41:11;;;;;;;5.97;4.80;;;26.70;52.50;;;;;;5015783;28;20029;-77
2022/05/09 11:43:47;;;;;;;8.93;5.55;;;26.70;52.60;;;;;;5013952;28;20067;-76
2022/05/09 11:46:33;;;;;;;6.20;4.68;;;26.50;52.80;;;;;;5017869;28;20383;-75
2022/05/09 11:49:10;;;;;;;6.60;4.50;;;26.00;53.70;;;;;;5015296;28;20033;-75
2022/05/09 11:51:46;;;;;;;;;;;25.50;55.00;;;;;;5011799;28;20029;-75
2022/05/09 11:54:41;;;;;;;5.63;4.68;;;25.50;55.90;;;;;;5016484;28;19998;-75
2022/05/09 11:57:32;;;;;;;6.57;4.85;;;25.60;55.80;;;;;;5017170;28;20402;-75
2022/05/09 12:00:08;;;;;;;5.88;4.43;;;25.60;56.00;;;;;;5012157;28;20021;-75
2022/05/09 12:02:57;;;;;;;6.07;4.40;;;25.70;56.10;;;;;;5015413;28;20017;-74
2022/05/09 12:05:26;;;;;;;6.47;4.88;;;25.80;55.60;;;;;;5017232;28;20038;-74
2022/05/09 12:08:04;;;;;;;9.43;4.75;;;25.50;55.40;;;;;;5013685;28;20071;-75
2022/05/09 12:10:38;;;;;;;4.50;4.10;;;25.40;54.70;;;;;;5016945;28;20033;-74
2022/05/09 12:13:14;;;;;;;6.78;5.15;;;25.60;55.80;;;;;;5016983;28;20029;-70
2022/05/09 12:15:48;;;;;;;5.93;4.10;;;25.70;54.50;;;;;;5008719;28;20431;-70
2022/05/09 12:18:20;;;;;;;6.20;4.13;;;26.00;56.10;;;;;;5013168;28;20045;-69
2022/05/09 12:20:49;;;;;;;5.72;3.95;;;26.20;55.30;;;;;;5010039;28;20145;-69
2022/05/09 12:23:39;;;;;;;5.45;3.67;;;26.40;53.80;;;;;;5013758;28;20115;-71
2022/05/09 12:26:07;;;;;;;5.22;3.60;;;26.50;54.10;;;;;;5013193;28;20036;-70
2022/05/09 12:28:36;;;;;;;5.60;4.18;;;26.20;54.40;;;;;;5011822;28;20029;-69
2022/05/09 12:31:32;;;;;;;4.40;3.63;;;25.50;53.20;;;;;;5008657;28;20025;-69
2022/05/09 12:33:58;;;;;;;6.07;3.70;;;25.10;55.00;;;;;;5009967;28;20021;-69
2022/05/09 12:36:28;;;;;;;5.82;4.28;;;25.00;56.50;;;;;;5013076;28;20025;-70
2022/05/09 12:39:15;;;;;;;6.28;4.00;;;24.90;55.80;;;;;;5009019;28;20179;-69
2022/05/09 12:41:55;;;;;;;4.82;3.70;;;24.90;56.10;;;;;;5011889;28;20124;-70
2022/05/09 12:44:30;;;;;;;5.15;3.70;;;25.00;54.30;;;;;;5014638;28;20033;-70
2022/05/09 12:46:59;;;;;;;4.30;3.40;;;25.10;54.00;;;;;;5013583;28;20629;-70
2022/05/09 12:49:40;;;;;;;3.97;3.25;;;25.40;53.60;;;;;;5015035;28;20140;-70
2022/05/09 12:52:08;;;;;;;5.13;3.90;;;25.60;54.40;;;;;;5030653;28;20368;-70
2022/05/09 12:54:37;;;;;;;4.47;3.42;;;25.70;53.60;;;;;;5015103;28;20021;-74
2022/05/09 12:57:07;;;;;;;6.65;3.70;;;25.80;54.70;;;;;;5013814;28;20021;-75
2022/05/09 12:59:50;;;;;;;6.57;3.80;;;25.80;53.40;;;;;;5019185;28;20045;-74
2022/05/09 13:02:23;;;;;;;3.60;3.22;;;25.80;51.90;;;;;;5021980;28;20143;-74
2022/05/09 13:04:54;;;;;;;5.47;3.58;;;25.60;52.40;;;;;;5016390;28;20041;-75
2022/05/09 13:07:20;;;;;;;3.75;3.45;;;25.40;53.60;;;;;;5020698;28;20505;-75
2022/05/09 13:09:48;;;;;;;;;;;25.50;53.50;;;;;;5016765;28;20033;-74
2022/05/09 13:12:39;;;;;;;4.53;3.63;;;25.30;54.10;;;;;;5035553;28;20278;-75
2022/05/09 13:15:13;;;;;;;4.78;3.85;;;25.10;55.50;;;;;;5014445;28;20060;-75
2022/05/09 13:17:46;;;;;;;6.53;3.70;;;25.00;55.40;;;;;;5018288;28;20076;-74
2022/05/09 13:20:19;;;;;;;5.80;4.13;;;24.90;56.30;;;;;;5019822;28;20530;-74
2022/05/09 13:22:50;;;;;;;5.45;3.80;;;24.90;56.10;;;;;;5015862;28;20052;-74
2022/05/09 13:25:32;;;;;;;3.67;2.92;;;25.10;56.30;;;;;;5018331;28;20046;-74
2022/05/09 13:28:04;;;;;;;4.25;3.17;;;25.20;55.50;;;;;;5029876;28;20030;-74
2022/05/09 13:30:37;;;;;;;4.65;3.00;;;25.30;53.80;;;;;;5018860;28;20018;-74
2022/05/09 13:33:03;;;;;;;5.45;3.30;;;25.40;54.00;;;;;;5027136;28;20032;-74
2022/05/09 13:35:37;;;;;;;;;;;25.50;52.50;;;;;;5017844;28;20029;-74
2022/05/09 13:38:40;;;;;;;4.45;3.30;;;25.60;53.60;;;;;;5014995;28;19960;-74
2022/05/09 13:41:18;;;;;;;6.47;3.55;;;25.60;53.10;;;;;;5021248;28;20919;-74
2022/05/09 13:43:49;;;;;;;3.85;3.45;;;25.50;53.60;;;;;;5016745;28;20052;-74
2022/05/09 13:46:41;;;;;;;5.93;3.80;;;25.50;54.00;;;;;;5018418;28;20682;-73
2022/05/09 13:49:14;;;;;;;3.83;3.35;;;25.40;53.80;;;;;;5013315;28;20030;-74
2022/05/09 13:51:59;;;;;;;6.95;3.30;;;25.40;55.30;;;;;;5014992;28;20032;-74
2022/05/09 13:54:27;;;;;;;4.38;3.55;;;25.30;54.30;;;;;;5018155;28;20615;-74
2022/05/09 13:57:25;;;;;;;4.78;3.10;;;25.30;53.60;;;;;;5012417;28;20048;-74
2022/05/09 13:59:59;;;;;;;9.07;3.42;;;25.30;52.30;;;;;;5013348;28;20512;-75
2022/05/09 14:02:30;;;;;;;4.20;3.40;;;25.20;52.00;;;;;;5017495;28;20030;-74
2022/05/09 14:05:04;;;;;;;4.55;3.53;;;25.20;53.60;;;;;;5011769;28;20067;-74
2022/05/09 14:07:41;;;;;;;4.30;3.38;;;25.20;54.60;;;;;;5016963;28;20644;-74
2022/05/09 14:10:40;;;;;;;4.75;3.47;;;25.20;54.50;;;;;;5012585;28;20014;-73
2022/05/09 14:13:50;;;;;;;4.35;3.60;;;25.20;55.20;;;;;;5011487;28;20013;-74
2022/05/09 14:16:44;;;;;;;4.97;3.28;;;25.30;56.00;;;;;;5016020;28;20096;-74
2022/05/09 14:19:29;;;;;;;4.38;3.50;;;25.40;55.40;;;;;;5010380;28;20048;-74
2022/05/09 14:22:04;;;;;;;5.00;3.20;;;25.40;54.40;;;;;;5009496;28;20033;-74
2022/05/09 14:24:33;;;;;;;6.13;3.30;;;25.30;54.80;;;;;;5017441;28;20021;-73
2022/05/09 14:29:57;;;;;;;3.10;2.80;;;25.10;55.40;;;;;;5014076;28;20087;-72
2022/05/09 14:32:46;;;;;;;5.50;3.05;;;25.10;54.00;;;;;;5017738;28;20025;-72
2022/05/09 14:35:33;;;;;;;3.72;2.95;;;25.10;54.10;;;;;;5014848;28;20109;-72
2022/05/09 14:37:59;;;;;;;3.70;3.10;;;24.60;54.50;;;;;;5012277;28;20048;-72
2022/05/09 14:40:27;;;;;;;;;;;24.60;53.80;;;;;;5016278;28;20615;-72
2022/05/09 14:43:09;;;;;;;4.63;3.30;;;24.40;54.00;;;;;;5009837;28;19932;-72
2022/05/09 14:45:40;;;;;;;5.88;3.35;;;24.40;54.60;;;;;;5014020;28;20030;-73
2022/05/09 14:48:18;;;;;;;4.15;3.03;;;24.40;54.70;;;;;;5009919;28;20352;-72
2022/05/09 14:50:56;;;;;;;3.72;2.70;;;24.40;55.00;;;;;;5015878;28;20025;-73
2022/05/09 14:53:49;;;;;;;4.32;2.90;;;24.40;55.30;;;;;;5016909;28;20022;-74
2022/05/09 14:59:15;;;;;;;4.78;3.42;;;24.30;54.80;;;;;;5011237;28;20398;-74
2022/05/09 15:01:52;;;;;;;3.65;2.70;;;24.10;54.90;;;;;;5016193;28;20022;-74
2022/05/09 15:04:19;;;;;;;4.00;2.80;;;24.00;55.60;;;;;;5015920;28;20028;-74
2022/05/09 15:06:47;;;;;;;4.20;2.80;;;24.00;55.90;;;;;;5017472;28;20040;-73
2022/05/09 15:09:14;;;;;;;7.22;3.45;;;24.10;55.20;;;;;;5014882;28;20029;-74
2022/05/09 15:11:42;;;;;;;4.90;2.83;;;23.90;55.40;;;;;;5016614;28;20017;-74
2022/05/09 15:14:12;;;;;;;2.97;2.60;;;23.70;54.60;;;;;;5013163;28;20507;-73
2022/05/09 15:16:45;;;;;;;4.03;2.70;;;23.70;54.50;;;;;;5017436;28;20020;-74
2022/05/09 15:19:25;;;;;;;2.85;2.55;;;23.40;54.70;;;;;;5011335;28;20471;-73
2022/05/09 15:21:51;;;;;;;4.13;3.00;;;23.40;55.30;;;;;;5012196;28;20014;-74
2022/05/09 15:24:18;;;;;;;3.28;2.97;;;23.30;54.40;;;;;;5016916;28;20029;-73
2022/05/09 15:26:49;;;;;;;3.70;2.60;;;23.30;54.70;;;;;;5016244;28;20048;-74
2022/05/09 15:29:15;;;;;;;3.25;2.95;;;23.30;55.20;;;;;;5015902;28;20023;-74
2022/05/09 15:31:41;;;;;;;4.43;3.00;;;23.40;54.50;;;;;;5012225;28;20548;-74
2022/05/09 15:34:10;;;;;;;4.63;2.65;;;23.40;54.90;;;;;;5014093;28;20041;-74
2022/05/09 15:36:39;;;;;;;4.28;2.70;;;23.30;55.10;;;;;;5015650;28;20053;-73
2022/05/09 15:39:05;;;;;;;4.78;3.03;;;23.30;55.10;;;;;;5011189;28;20013;-73
2022/05/09 15:41:33;;;;;;;3.45;2.65;;;23.20;55.00;;;;;;5015924;28;20079;-73
2022/05/09 15:44:02;;;;;;;5.10;3.10;;;23.20;55.10;;;;;;5013069;28;20021;-73
2022/05/09 15:46:34;;;;;;;3.33;2.67;;;23.10;54.90;;;;;;5016519;28;20021;-74
2022/05/09 15:49:08;;;;;;;4.45;3.13;;;23.10;55.30;;;;;;5010635;28;20471;-74
2022/05/09 15:51:37;;;;;;;3.85;2.70;;;23.00;55.70;;;;;;5013663;28;20044;-73
2022/05/09 15:54:07;;;;;;;4.38;2.90;;;23.00;56.10;;;;;;5025351;28;20032;-73
2022/05/09 15:56:36;;;;;;;4.88;3.00;;;23.10;56.20;;;;;;5016123;28;20442;-73
2022/05/09 15:59:04;;;;;;;3.40;2.92;;;23.10;55.70;;;;;;5009924;28;20827;-73
2022/05/09 16:01:35;;;;;;;2.58;2.30;;;23.20;55.60;;;;;;5014929;28;20025;-73
2022/05/09 16:04:05;;;;;;;3.13;2.70;;;23.10;55.00;;;;;;5012456;28;20026;-73
2022/05/09 16:12:04;;;;;;;3.78;2.63;;;23.00;55.30;;;;;;5010202;28;20032;-73
2022/05/09 16:14:32;;;;;;;4.90;2.88;;;23.10;55.70;;;;;;5016969;28;20069;-73
2022/05/09 16:17:01;;;;;;;4.45;2.67;;;23.10;54.90;;;;;;5028224;28;20029;-74
2022/05/09 16:19:37;;;;;;;3.67;2.78;;;23.00;55.00;;;;;;5016090;28;20032;-74
2022/05/09 16:22:06;;;;;;;4.05;3.03;;;22.90;55.20;;;;;;5013354;28;20037;-73
2022/05/09 16:24:33;;;;;;;2.80;2.50;;;22.90;55.00;;;;;;5016103;28;20016;-74
2022/05/09 16:27:00;;;;;;;3.45;2.70;;;22.80;55.60;;;;;;5013119;28;20055;-74
2022/05/09 16:29:26;;;;;;;4.22;2.83;;;22.80;55.80;;;;;;5015724;28;20026;-74
2022/05/09 16:31:54;;;;;;;;;;;22.80;56.70;;;;;;5011319;28;20032;-74
2022/05/09 16:34:34;;;;;;;3.65;2.92;;;22.70;56.40;;;;;;5017101;28;19954;-74
2022/05/09 16:37:07;;;;;;;4.68;2.67;;;22.70;55.90;;;;;;5013437;28;20122;-74
2022/05/09 16:39:44;;;;;;;4.15;2.58;;;22.70;55.90;;;;;;5017096;28;20060;-74
2022/05/09 16:42:15;;;;;;;;;;;22.70;56.40;;;;;;5010783;28;20352;-75
2022/05/09 16:45:07;;;;;;;3.33;2.92;;;22.70;56.90;;;;;;5016480;28;19936;-73
2022/05/09 16:47:36;;;;;;;3.00;2.72;;;22.70;56.60;;;;;;5014072;28;20048;-73
2022/05/09 16:50:06;;;;;;;4.82;2.67;;;22.70;56.50;;;;;;5009762;28;20025;-73
2022/05/09 16:52:33;;;;;;;4.40;3.17;;;22.70;56.90;;;;;;5015831;28;20032;-73
2022/05/09 16:55:01;;;;;;;3.28;2.90;;;22.70;57.30;;;;;;5012177;28;20036;-73
2022/05/09 16:57:29;;;;;;;5.45;3.58;;;22.70;56.80;;;;;;5016663;28;20038;-74
2022/05/09 16:59:56;;;;;;;3.15;2.85;;;22.60;56.90;;;;;;5012332;28;21060;-74
2022/05/09 17:02:26;;;;;;;2.97;2.67;;;22.50;57.20;;;;;;5016405;28;20109;-74
2022/05/09 17:04:52;;;;;;;3.95;3.20;;;22.40;57.60;;;;;;5013388;28;20032;-74
2022/05/09 17:07:18;;;;;;;3.03;2.50;;;22.40;58.10;;;;;;5016877;28;20083;-73
2022/05/09 17:09:51;;;;;;;2.63;2.42;;;22.40;57.90;;;;;;5015608;28;20022;-73
2022/05/09 17:12:25;;;;;;;4.60;2.95;;;22.30;58.40;;;;;;5015807;28;20034;-74
2022/05/09 17:14:52;;;;;;;3.50;2.83;;;22.30;58.40;;;;;;5015313;28;20032;-74
2022/05/09 17:17:18;;;;;;;3.65;2.80;;;22.20;58.40;;;;;;5014564;28;20021;-73
2022/05/09 17:19:45;;;;;;;3.80;2.83;;;22.20;59.10;;;;;;5015381;28;20414;-74
2022/05/09 17:22:12;;;;;;;5.10;3.30;;;22.10;58.70;;;;;;5011307;28;20914;-73
2022/05/09 17:24:38;;;;;;;4.05;2.83;;;22.10;58.70;;;;;;5015657;28;20025;-73
2022/05/09 17:27:07;;;;;;;4.60;3.00;;;22.10;59.00;;;;;;5012981;28;20026;-73
2022/05/09 17:29:34;;;;;;;3.53;2.80;;;22.00;59.70;;;;;;5016601;28;20486;-73
2022/05/09 17:32:01;;;;;;;5.72;3.08;;;22.00;59.50;;;;;;5015211;28;20025;-73
2022/05/09 17:34:26;;;;;;;;;;;21.90;60.20;;;;;;5021080;28;20026;-75
2022/05/09 17:39:52;;;;;;;4.15;2.95;;;21.70;60.30;;;;;;5020210;28;20116;-74
2022/05/09 17:42:24;;;;;;;3.50;3.20;;;21.70;61.80;;;;;;5019527;28;20040;-74
2022/05/09 17:44:51;;;;;;;4.10;3.20;;;21.60;62.20;;;;;;5020232;28;20033;-74
2022/05/09 17:47:18;;;;;;;5.15;2.80;;;21.60;62.30;;;;;;5018618;28;20052;-73
2022/05/09 17:49:46;;;;;;;4.25;3.10;;;21.50;63.20;;;;;;5018255;28;20025;-73
2022/05/09 17:52:14;;;;;;;4.32;2.80;;;21.40;63.10;;;;;;5015707;28;20108;-75
2022/05/09 17:54:39;;;;;;;3.03;2.72;;;21.40;63.30;;;;;;5019989;28;20022;-73
2022/05/09 17:57:15;;;;;;;4.32;3.45;;;21.30;64.40;;;;;;5016384;28;20024;-73
2022/05/09 17:59:45;;;;;;;5.55;3.30;;;21.20;65.30;;;;;;5017936;28;20005;-74
2022/05/09 18:02:13;;;;;;;3.65;3.20;;;21.10;65.70;;;;;;5015116;28;20174;-74
2022/05/09 18:04:40;;;;;;;6.95;3.53;;;21.00;66.10;;;;;;5017015;28;20049;-74